Terminal Aerodrome Forecast
Issued by NWS Greer, SC

Current Version | Previous Version | Text Only | Print | Product List | Glossary On
Versions: 1 2 3 4 5 6 7 8 9 10 11 12 13 14 15 16 17 18 19 20 21 22 23 24 25 26 27 28 29
000
FTUS42 KGSP 170500
TAFGSP
TAF
KGSP 170540Z 1706/1806 02003KT P6SM FEW090
     FM170800 01004KT 5SM BR BKN050
     FM171100 02005KT 3SM BR SCT008 BKN015
     FM171400 02006KT P6SM BKN021
     FM172000 04006KT P6SM BKN040=

USA.gov is the U.S. government's official web portal to all federal, state and local government web resources and services.